createdAt,value
2022-11-03T00:01:43.463Z,3.90
2022-11-03T00:04:15.841Z,3.63
2022-11-03T00:06:43.951Z,3.43
2022-11-03T00:09:12.651Z,2.83
2022-11-03T00:11:40.292Z,3.97
2022-11-03T00:14:07.555Z,3.20
2022-11-03T00:16:34.044Z,3.40
2022-11-03T00:19:00.846Z,3.40
2022-11-03T00:21:27.563Z,3.50
2022-11-03T00:23:54.308Z,3.27
2022-11-03T00:26:25.283Z,3.30
2022-11-03T00:28:53.706Z,3.30
2022-11-03T00:31:28.420Z,2.60
2022-11-03T00:33:55.133Z,3.00
2022-11-03T00:36:33.046Z,3.33
2022-11-03T00:38:59.622Z,3.37
2022-11-03T00:41:26.850Z,2.97
2022-11-03T00:43:54.134Z,3.40
2022-11-03T00:46:21.892Z,3.30
2022-11-03T00:48:48.486Z,3.60
2022-11-03T00:51:21.967Z,3.17
2022-11-03T00:53:53.700Z,2.87
2022-11-03T00:56:24.045Z,3.13
2022-11-03T00:58:51.595Z,3.07
2022-11-03T01:01:23.576Z,3.40
2022-11-03T01:04:11.122Z,3.13
2022-11-03T01:06:53.356Z,2.70
2022-11-03T01:09:26.810Z,3.07
2022-11-03T01:11:59.331Z,3.20
2022-11-03T01:14:50.065Z,3.10
2022-11-03T01:19:51.097Z,3.40
2022-11-03T01:22:18.448Z,3.20
2022-11-03T01:24:45.327Z,3.60
2022-11-03T01:27:14.895Z,3.00
2022-11-03T01:29:41.827Z,3.50
2022-11-03T01:32:11.200Z,2.87
2022-11-03T01:34:37.723Z,2.93
2022-11-03T01:37:04.586Z,2.83
2022-11-03T01:39:31.071Z,3.47
2022-11-03T01:41:57.739Z,3.13
2022-11-03T01:44:27.879Z,3.10
2022-11-03T01:47:29.840Z,3.33
2022-11-03T01:50:02.329Z,3.27
2022-11-03T01:52:42.634Z,2.80
2022-11-03T01:55:12.026Z,2.90
2022-11-03T01:57:41.658Z,2.87
2022-11-03T02:00:09.507Z,2.80
2022-11-03T02:02:36.035Z,3.63
2022-11-03T02:05:03.953Z,2.93
2022-11-03T02:07:35.412Z,3.40
2022-11-03T02:10:02.096Z,3.00
2022-11-03T02:12:28.761Z,3.30
2022-11-03T02:15:00.400Z,3.53
2022-11-03T02:17:29.551Z,3.17
2022-11-03T02:20:03.670Z,3.23
2022-11-03T02:22:37.747Z,2.83
2022-11-03T02:25:29.013Z,2.93
2022-11-03T02:27:55.526Z,3.53
2022-11-03T02:30:22.124Z,3.03
2022-11-03T02:32:53.970Z,2.87
2022-11-03T02:35:24.599Z,2.90
2022-11-03T02:37:55.846Z,3.13
2022-11-03T02:40:35.079Z,3.27
2022-11-03T02:43:02.297Z,3.33
2022-11-03T02:45:29.306Z,2.97
2022-11-03T02:48:00.417Z,2.87
2022-11-03T02:50:28.574Z,2.57
2022-11-03T02:52:55.640Z,2.90
2022-11-03T02:55:40.044Z,3.13
2022-11-03T02:58:30.803Z,2.77
2022-11-03T03:01:15.185Z,2.43
2022-11-03T03:03:48.070Z,3.03
2022-11-03T03:06:22.464Z,2.80
2022-11-03T03:08:54.312Z,3.00
2022-11-03T03:11:37.549Z,2.83
2022-11-03T03:14:21.079Z,3.13
2022-11-03T03:16:59.697Z,3.20
2022-11-03T03:19:43.100Z,3.13
2022-11-03T03:22:47.456Z,2.87
2022-11-03T03:25:25.732Z,3.03
2022-11-03T03:27:58.316Z,3.10
2022-11-03T03:30:24.837Z,3.40
2022-11-03T03:32:52.415Z,3.13
2022-11-03T03:35:26.988Z,3.03
2022-11-03T03:37:55.787Z,2.83
2022-11-03T03:40:29.603Z,3.00
2022-11-03T03:42:57.060Z,3.10
2022-11-03T03:45:24.975Z,3.00
2022-11-03T03:47:56.353Z,3.00
2022-11-03T03:50:25.644Z,2.83
2022-11-03T03:52:57.348Z,2.63
2022-11-03T03:55:28.961Z,2.67
2022-11-03T03:57:58.004Z,2.70
2022-11-03T04:00:26.863Z,2.70
2022-11-03T04:02:53.654Z,2.70
2022-11-03T04:05:20.084Z,2.60
2022-11-03T04:07:49.618Z,2.80
2022-11-03T04:10:17.286Z,2.63
2022-11-03T04:13:02.954Z,2.80
2022-11-03T04:15:48.379Z,2.70
2022-11-03T04:18:33.567Z,2.80
2022-11-03T04:21:18.578Z,2.90
2022-11-03T04:23:45.034Z,3.07
2022-11-03T04:26:13.971Z,3.17
2022-11-03T04:28:42.266Z,2.83
2022-11-03T04:31:17.011Z,2.70
2022-11-03T04:33:43.992Z,3.00
2022-11-03T04:36:23.800Z,2.70
2022-11-03T04:38:51.015Z,2.87
2022-11-03T04:41:25.609Z,2.73
2022-11-03T04:43:52.749Z,2.50
2022-11-03T04:46:29.520Z,2.20
2022-11-03T04:49:00.916Z,2.63
2022-11-03T04:51:30.686Z,2.27
2022-11-03T04:54:06.930Z,2.30
2022-11-03T04:56:33.926Z,2.80
2022-11-03T04:59:00.421Z,2.70
2022-11-03T05:01:27.576Z,2.60
2022-11-03T05:03:54.625Z,2.70
2022-11-03T05:06:31.205Z,2.40
2022-11-03T05:09:03.271Z,2.43
2022-11-03T05:11:40.591Z,3.00
2022-11-03T05:14:30.332Z,2.93
2022-11-03T05:16:57.289Z,2.40
2022-11-03T05:19:33.878Z,2.77
2022-11-03T05:22:01.398Z,2.87
2022-11-03T05:24:27.987Z,2.63
2022-11-03T05:26:56.263Z,2.70
2022-11-03T05:29:24.536Z,3.10
2022-11-03T05:31:52.481Z,2.60
2022-11-03T05:34:31.511Z,2.90
2022-11-03T05:37:24.957Z,2.83
2022-11-03T05:39:55.761Z,2.57
2022-11-03T05:42:22.171Z,2.70
2022-11-03T05:44:49.749Z,2.53
2022-11-03T05:47:24.983Z,2.70
2022-11-03T05:49:54.995Z,2.83
2022-11-03T05:52:24.472Z,2.37
2022-11-03T05:54:55.346Z,2.80
2022-11-03T05:57:21.910Z,2.80
2022-11-03T05:59:50.392Z,2.57
2022-11-03T06:02:39.854Z,2.53
2022-11-03T06:05:15.834Z,2.60
2022-11-03T06:07:42.411Z,2.50
2022-11-03T06:10:28.416Z,3.07
2022-11-03T06:12:57.064Z,2.37
2022-11-03T06:15:44.388Z,2.20
2022-11-03T06:18:15.499Z,2.57
2022-11-03T06:20:42.679Z,2.20
2022-11-03T06:23:15.739Z,2.60
2022-11-03T06:25:43.418Z,3.13
2022-11-03T06:28:22.140Z,2.83
2022-11-03T06:30:48.711Z,2.90
2022-11-03T06:33:29.033Z,2.40
2022-11-03T06:36:05.635Z,2.80
2022-11-03T06:38:34.727Z,3.53
2022-11-03T06:41:01.376Z,2.77
2022-11-03T06:43:41.480Z,2.53
2022-11-03T06:46:19.838Z,2.43
2022-11-03T06:48:46.373Z,2.60
2022-11-03T06:51:24.517Z,2.70
2022-11-03T06:53:52.585Z,2.70
2022-11-03T06:56:24.619Z,2.70
2022-11-03T06:58:52.851Z,2.60
2022-11-03T07:01:22.349Z,2.40
2022-11-03T07:04:12.131Z,3.30
2022-11-03T07:06:38.637Z,2.70
2022-11-03T07:09:09.692Z,2.70
2022-11-03T07:11:42.826Z,2.43
2022-11-03T07:14:21.970Z,2.83
2022-11-03T07:16:56.470Z,2.77
2022-11-03T07:19:26.614Z,2.60
2022-11-03T07:21:55.040Z,2.77
2022-11-03T07:24:33.813Z,2.77
2022-11-03T07:27:11.047Z,2.77
2022-11-03T07:29:37.503Z,3.00
2022-11-03T07:32:11.316Z,2.67
2022-11-03T07:34:37.768Z,3.00
2022-11-03T07:37:04.252Z,3.13
2022-11-03T07:39:35.328Z,2.80
2022-11-03T07:42:22.217Z,3.27
2022-11-03T07:44:49.196Z,2.43
2022-11-03T07:47:25.977Z,2.53
2022-11-03T07:49:52.755Z,2.97
2022-11-03T07:52:21.809Z,2.77
2022-11-03T07:54:49.129Z,3.20
2022-11-03T07:57:20.188Z,2.97
2022-11-03T07:59:49.443Z,3.00
2022-11-03T08:02:32.358Z,2.57
2022-11-03T08:04:59.899Z,3.00
2022-11-03T08:07:28.027Z,2.63
2022-11-03T08:09:54.719Z,3.00
2022-11-03T08:12:21.986Z,2.80
2022-11-03T08:14:48.652Z,2.60
2022-11-03T08:17:15.609Z,3.00
2022-11-03T08:19:42.300Z,3.00
2022-11-03T08:22:08.822Z,2.87
2022-11-03T08:24:35.246Z,3.37
2022-11-03T08:27:03.548Z,2.90
2022-11-03T08:29:30.102Z,2.80
2022-11-03T08:31:56.585Z,2.40
2022-11-03T08:34:23.027Z,3.17
2022-11-03T08:36:49.483Z,2.87
2022-11-03T08:39:15.940Z,3.00
2022-11-03T08:41:43.073Z,2.80
2022-11-03T08:44:09.750Z,3.20
2022-11-03T08:46:36.414Z,3.20
2022-11-03T08:49:02.867Z,3.30
2022-11-03T08:51:29.371Z,2.43
2022-11-03T08:53:55.865Z,3.00
2022-11-03T08:56:22.901Z,3.43
2022-11-03T08:58:49.863Z,2.87
2022-11-03T09:01:16.515Z,2.70
2022-11-03T09:03:43.110Z,3.07
2022-11-03T09:06:09.790Z,3.37
2022-11-03T09:11:22.711Z,2.43
2022-11-03T09:13:49.135Z,2.60
2022-11-03T09:16:16.121Z,2.93
2022-11-03T09:18:42.746Z,2.70
2022-11-03T09:21:09.287Z,2.57
2022-11-03T09:23:35.779Z,2.43
2022-11-03T09:26:02.264Z,3.00
2022-11-03T09:28:28.680Z,2.77
2022-11-03T09:30:55.131Z,2.60
2022-11-03T09:33:21.747Z,2.37
2022-11-03T09:35:48.228Z,3.03
2022-11-03T09:38:14.676Z,3.33
2022-11-03T09:40:41.330Z,2.80
2022-11-03T09:43:08.180Z,2.30
2022-11-03T09:45:34.992Z,2.97
2022-11-03T09:48:01.576Z,2.63
2022-11-03T09:50:28.040Z,3.00
2022-11-03T09:52:55.466Z,2.33
2022-11-03T09:55:25.296Z,2.80
2022-11-03T09:57:53.358Z,2.50
2022-11-03T10:00:21.671Z,3.00
2022-11-03T10:02:48.845Z,2.70
2022-11-03T10:05:27.838Z,2.57
2022-11-03T10:08:07.292Z,2.30
2022-11-03T10:10:34.702Z,2.93
2022-11-03T10:13:01.440Z,2.40
2022-11-03T10:15:28.036Z,2.50
2022-11-03T10:17:55.379Z,2.63
2022-11-03T10:20:22.520Z,2.73
2022-11-03T10:22:52.636Z,2.50
2022-11-03T10:25:40.096Z,2.67
2022-11-03T10:28:23.683Z,3.47
2022-11-03T10:31:11.809Z,3.10
2022-11-03T10:33:40.633Z,2.97
2022-11-03T10:36:16.234Z,2.60
2022-11-03T10:38:43.759Z,2.70
2022-11-03T10:41:17.806Z,2.80
2022-11-03T10:43:55.248Z,2.73
2022-11-03T10:49:14.473Z,2.90
2022-11-03T10:51:42.463Z,2.90
2022-11-03T10:54:13.008Z,2.80
2022-11-03T10:56:39.452Z,2.70
2022-11-03T10:59:05.926Z,2.53
2022-11-03T11:01:32.705Z,2.73
2022-11-03T11:03:59.324Z,2.13
2022-11-03T11:06:30.105Z,2.90
2022-11-03T11:09:04.377Z,2.77
2022-11-03T11:11:30.874Z,2.80
2022-11-03T11:14:39.430Z,2.57
2022-11-03T11:17:06.636Z,2.53
2022-11-03T11:20:11.411Z,2.80
2022-11-03T11:22:37.866Z,2.47
2022-11-03T11:25:04.654Z,3.00
2022-11-03T11:27:37.144Z,3.07
2022-11-03T11:30:05.650Z,2.73
2022-11-03T11:32:55.816Z,2.50
2022-11-03T11:35:26.210Z,2.33
2022-11-03T11:37:53.924Z,2.60
2022-11-03T11:40:23.426Z,3.00
2022-11-03T11:43:11.064Z,2.67
2022-11-03T11:46:15.443Z,2.60
2022-11-03T11:48:41.995Z,2.73
2022-11-03T11:51:10.334Z,2.83
2022-11-03T11:53:41.431Z,2.80
2022-11-03T11:56:16.508Z,2.60
2022-11-03T11:58:55.295Z,2.73
2022-11-03T12:01:34.499Z,3.10
2022-11-03T12:04:06.123Z,2.80
2022-11-03T12:06:37.637Z,2.83
2022-11-03T12:09:21.219Z,2.90
2022-11-03T12:11:55.656Z,3.20
2022-11-03T12:14:28.945Z,2.57
2022-11-03T12:16:56.928Z,2.67
2022-11-03T12:19:36.857Z,3.00
2022-11-03T12:22:05.365Z,2.57
2022-11-03T12:24:32.017Z,2.57
2022-11-03T12:27:03.585Z,2.87
2022-11-03T12:29:30.205Z,3.03
2022-11-03T12:31:56.664Z,2.60
2022-11-03T12:34:23.109Z,3.00
2022-11-03T12:36:54.769Z,3.10
2022-11-03T12:39:22.315Z,3.00
2022-11-03T12:41:48.757Z,3.47
2022-11-03T12:44:15.271Z,3.27
2022-11-03T12:46:41.778Z,2.70
2022-11-03T12:49:08.473Z,3.57
2022-11-03T12:51:34.934Z,3.60
2022-11-03T12:54:01.387Z,3.47
2022-11-03T12:56:27.825Z,3.13
2022-11-03T12:58:54.241Z,2.60
2022-11-03T13:01:20.807Z,2.47
2022-11-03T13:03:47.386Z,4.50
2022-11-03T13:06:14.873Z,3.30
2022-11-03T13:08:41.521Z,3.10
2022-11-03T13:11:28.055Z,3.20
2022-11-03T13:13:54.965Z,3.13
2022-11-03T13:16:21.924Z,3.90
2022-11-03T13:18:48.602Z,2.40
2022-11-03T13:21:15.246Z,2.57
2022-11-03T13:23:41.788Z,3.37
2022-11-03T13:26:08.258Z,2.80
2022-11-03T13:28:34.771Z,2.93
2022-11-03T13:31:01.296Z,3.00
2022-11-03T13:33:27.780Z,2.90
2022-11-03T13:35:54.571Z,2.50
2022-11-03T13:38:21.401Z,2.83
2022-11-03T13:40:56.685Z,2.47
2022-11-03T13:43:23.947Z,2.77
2022-11-03T13:45:50.381Z,2.40
2022-11-03T13:51:05.422Z,2.57
2022-11-03T13:56:21.882Z,2.40
2022-11-03T14:01:36.833Z,3.47
2022-11-03T14:06:50.138Z,2.60
2022-11-03T14:09:16.559Z,2.70
2022-11-03T14:12:01.829Z,2.90
2022-11-03T14:14:28.271Z,3.53
2022-11-03T14:16:54.835Z,3.73
2022-11-03T14:19:21.530Z,3.70
2022-11-03T14:21:47.968Z,2.97
2022-11-03T14:24:14.463Z,2.30
2022-11-03T14:26:42.686Z,2.50
2022-11-03T14:29:10.070Z,3.10
2022-11-03T14:31:36.779Z,2.53
2022-11-03T14:34:03.432Z,2.97
2022-11-03T14:36:29.918Z,2.63
2022-11-03T14:38:56.558Z,3.10
2022-11-03T14:41:41.743Z,3.27
2022-11-03T14:44:08.216Z,2.90
2022-11-03T14:46:34.680Z,3.20
2022-11-03T14:49:02.171Z,2.47
2022-11-03T14:51:29.475Z,2.67
2022-11-03T14:53:57.662Z,2.93
2022-11-03T14:56:24.645Z,2.70
2022-11-03T14:58:51.497Z,2.50
2022-11-03T15:01:19.116Z,3.50
2022-11-03T15:03:45.824Z,4.90
2022-11-03T15:06:12.501Z,20.20
2022-11-03T15:08:39.120Z,18.97
2022-11-03T15:11:07.794Z,5.97
2022-11-03T15:13:39.541Z,7.43
2022-11-03T15:16:10.636Z,5.30
2022-11-03T15:18:37.145Z,7.00
2022-11-03T15:21:03.590Z,5.50
2022-11-03T15:26:16.601Z,6.10
2022-11-03T15:28:43.059Z,5.23
2022-11-03T15:31:09.537Z,3.93
2022-11-03T15:33:35.988Z,4.03
2022-11-03T15:36:04.466Z,5.37
2022-11-03T15:38:31.575Z,3.60
2022-11-03T15:41:15.455Z,4.10
2022-11-03T15:43:49.448Z,4.07
2022-11-03T15:46:17.168Z,2.97
2022-11-03T15:48:44.453Z,3.37
2022-11-03T15:51:12.168Z,2.77
2022-11-03T15:53:39.054Z,4.87
2022-11-03T15:56:06.064Z,4.97
2022-11-03T15:58:34.394Z,3.43
2022-11-03T16:01:04.629Z,4.73
2022-11-03T16:03:32.110Z,3.63
2022-11-03T16:05:59.163Z,5.07
2022-11-03T16:08:25.855Z,3.53
2022-11-03T16:10:57.692Z,3.07
2022-11-03T16:13:25.172Z,3.70
2022-11-03T16:15:53.420Z,3.87
2022-11-03T16:18:20.215Z,3.13
2022-11-03T16:20:46.649Z,3.93
2022-11-03T16:23:13.187Z,3.63
2022-11-03T16:25:39.664Z,3.30
2022-11-03T16:28:07.369Z,2.50
2022-11-03T16:30:35.316Z,2.90
2022-11-03T16:33:02.062Z,2.87
2022-11-03T16:35:29.652Z,3.40
2022-11-03T16:37:56.242Z,3.60
2022-11-03T16:40:22.758Z,3.77
2022-11-03T16:42:49.231Z,3.40
2022-11-03T16:45:21.462Z,4.23
2022-11-03T16:47:49.039Z,4.93
2022-11-03T16:50:18.444Z,4.33
2022-11-03T16:52:46.569Z,5.90
2022-11-03T16:55:14.966Z,5.03
2022-11-03T16:57:41.995Z,4.53
2022-11-03T17:00:13.063Z,3.67
2022-11-03T17:02:39.657Z,4.73
2022-11-03T17:05:06.781Z,5.27
2022-11-03T17:07:33.386Z,4.60
2022-11-03T17:10:00.941Z,3.83
2022-11-03T17:12:27.416Z,3.57
2022-11-03T17:14:56.600Z,4.00
2022-11-03T17:17:23.494Z,8.70
2022-11-03T17:19:50.058Z,4.43
2022-11-03T17:22:16.896Z,3.93
2022-11-03T17:24:43.447Z,3.90
2022-11-03T17:27:29.116Z,4.20
2022-11-03T17:30:05.515Z,3.90
2022-11-03T17:32:37.360Z,3.87
2022-11-03T17:35:05.588Z,3.87
2022-11-03T17:37:32.043Z,3.57
2022-11-03T17:39:58.558Z,3.63
2022-11-03T17:42:26.260Z,4.00
2022-11-03T17:44:57.627Z,4.03
2022-11-03T17:47:24.702Z,3.80
2022-11-03T17:49:51.433Z,3.53
2022-11-03T17:52:25.024Z,11.43
2022-11-03T17:54:56.324Z,8.97
2022-11-03T17:57:23.005Z,7.10
2022-11-03T17:59:53.908Z,4.50
2022-11-03T18:02:25.820Z,11.23
2022-11-03T18:05:01.347Z,4.53
2022-11-03T18:07:30.729Z,3.60
2022-11-03T18:09:57.203Z,3.73
2022-11-03T18:12:44.753Z,4.07
2022-11-03T18:15:16.032Z,3.93
2022-11-03T18:17:43.048Z,3.13
2022-11-03T18:20:26.004Z,3.60
2022-11-03T18:22:53.105Z,3.67
2022-11-03T18:25:21.098Z,4.00
2022-11-03T18:27:48.110Z,4.77
2022-11-03T18:30:18.698Z,9.03
2022-11-03T18:32:45.865Z,5.40
2022-11-03T18:35:21.850Z,4.60
2022-11-03T18:37:48.956Z,4.50
2022-11-03T18:40:16.367Z,6.10
2022-11-03T18:42:42.840Z,5.10
2022-11-03T18:45:15.069Z,3.93
2022-11-03T18:47:42.588Z,3.80
2022-11-03T18:50:14.273Z,4.03
2022-11-03T18:52:43.202Z,4.23
2022-11-03T18:55:12.961Z,4.20
2022-11-03T18:57:40.118Z,6.60
2022-11-03T19:00:16.114Z,4.30
2022-11-03T19:02:42.755Z,5.40
2022-11-03T19:05:13.682Z,5.07
2022-11-03T19:07:41.264Z,4.13
2022-11-03T19:10:10.080Z,3.90
2022-11-03T19:12:39.165Z,4.53
2022-11-03T19:15:07.110Z,4.93
2022-11-03T19:20:14.907Z,3.77
2022-11-03T19:22:41.439Z,4.07
2022-11-03T19:25:08.583Z,3.67
2022-11-03T19:27:36.767Z,4.47
2022-11-03T19:30:04.309Z,3.80
2022-11-03T19:32:46.468Z,5.60
2022-11-03T19:35:21.700Z,3.97
2022-11-03T19:37:50.043Z,4.97
2022-11-03T19:40:18.642Z,3.37
2022-11-03T19:42:45.747Z,3.17
2022-11-03T19:45:17.439Z,2.87
2022-11-03T19:50:52.575Z,3.30
2022-11-03T19:53:22.507Z,3.10
2022-11-03T19:55:49.095Z,3.13
2022-11-03T19:58:22.896Z,2.93
2022-11-03T20:00:50.207Z,3.10
2022-11-03T20:03:16.713Z,3.17
2022-11-03T20:05:48.954Z,5.07
2022-11-03T20:08:18.991Z,4.97
2022-11-03T20:10:47.675Z,4.13
2022-11-03T20:13:16.077Z,4.73
2022-11-03T20:15:42.631Z,4.93
2022-11-03T20:18:12.002Z,4.27
2022-11-03T20:20:39.067Z,3.50
2022-11-03T20:23:06.685Z,3.30
2022-11-03T20:25:35.091Z,4.43
2022-11-03T20:28:08.849Z,4.40
2022-11-03T20:30:35.300Z,4.33
2022-11-03T20:33:01.755Z,4.30
2022-11-03T20:35:28.258Z,3.90
2022-11-03T20:37:58.858Z,4.77
2022-11-03T20:40:27.154Z,3.83
2022-11-03T20:42:56.264Z,3.20
2022-11-03T20:45:23.814Z,4.23
2022-11-03T20:47:50.665Z,4.27
2022-11-03T20:50:19.252Z,4.37
2022-11-03T20:52:49.171Z,4.07
2022-11-03T20:55:20.786Z,4.73
2022-11-03T20:57:50.349Z,3.43
2022-11-03T21:00:22.482Z,4.23
2022-11-03T21:02:49.819Z,5.47
2022-11-03T21:05:21.160Z,5.47
2022-11-03T21:07:48.822Z,6.10
2022-11-03T21:10:20.476Z,5.97
2022-11-03T21:12:47.593Z,5.73
2022-11-03T21:15:44.666Z,5.27
2022-11-03T21:18:43.237Z,5.57
2022-11-03T21:21:11.514Z,6.03
2022-11-03T21:23:39.295Z,6.60
2022-11-03T21:26:06.205Z,6.30
2022-11-03T21:28:32.748Z,5.07
2022-11-03T21:31:00.242Z,4.50
2022-11-03T21:33:27.902Z,4.40
2022-11-03T21:35:54.332Z,5.27
2022-11-03T21:38:20.852Z,7.27
2022-11-03T21:40:55.249Z,4.20
2022-11-03T21:43:41.374Z,4.87
2022-11-03T21:46:10.205Z,3.60
2022-11-03T21:48:55.696Z,3.90
2022-11-03T21:51:22.485Z,4.10
2022-11-03T21:53:49.096Z,6.47
2022-11-03T21:56:16.099Z,5.67
2022-11-03T21:58:43.042Z,4.27
2022-11-03T22:01:09.906Z,3.67
2022-11-03T22:03:37.002Z,3.33
2022-11-03T22:06:06.410Z,3.50
2022-11-03T22:08:33.459Z,3.73
2022-11-03T22:11:21.249Z,3.13
2022-11-03T22:13:59.013Z,3.20
2022-11-03T22:16:38.238Z,3.43
2022-11-03T22:19:25.347Z,4.33
2022-11-03T22:22:10.394Z,3.67
2022-11-03T22:24:57.164Z,3.43
2022-11-03T22:27:24.557Z,3.40
2022-11-03T22:30:09.682Z,3.90
2022-11-03T22:32:36.785Z,3.10
2022-11-03T22:35:22.982Z,3.50
2022-11-03T22:38:04.631Z,3.97
2022-11-03T22:40:49.924Z,3.70
2022-11-03T22:43:34.984Z,3.57
2022-11-03T22:46:01.486Z,3.60
2022-11-03T22:48:28.268Z,3.53
2022-11-03T22:51:00.357Z,3.50
2022-11-03T22:53:45.549Z,3.57
2022-11-03T22:56:12.120Z,4.00
2022-11-03T22:58:39.647Z,2.90
2022-11-03T23:01:11.702Z,3.87
2022-11-03T23:03:39.414Z,3.30
2022-11-03T23:06:08.384Z,3.70
2022-11-03T23:08:36.264Z,3.40
2022-11-03T23:11:04.428Z,3.60
2022-11-03T23:13:30.912Z,3.70
2022-11-03T23:15:57.356Z,3.60
2022-11-03T23:18:42.394Z,3.77
2022-11-03T23:21:09.346Z,3.27
2022-11-03T23:23:55.880Z,3.80
2022-11-03T23:26:23.871Z,3.17
2022-11-03T23:28:50.539Z,3.87
2022-11-03T23:31:17.259Z,3.93
2022-11-03T23:33:43.987Z,3.57
2022-11-03T23:36:14.967Z,3.87
2022-11-03T23:38:42.271Z,3.87
2022-11-03T23:41:19.244Z,3.83
2022-11-03T23:43:46.613Z,3.83
2022-11-03T23:46:33.638Z,3.43
2022-11-03T23:49:00.086Z,4.10
2022-11-03T23:51:28.475Z,3.67
2022-11-03T23:53:55.897Z,4.10
2022-11-03T23:56:44.911Z,3.57
2022-11-03T23:59:12.160Z,4.03
